Portada
METAR-TAF:

METAR-TAF

Aeroports :

Jandakot, Austràlia

latitud: 32-05-51S, longitud: 115-52-52E, altitud: 30 m

Observació

L'informe es va fer fa 43 minuts, a les 00:00 UTC
Vent 4 kt del Sud
Temperatura 18°C
Humitat 83%
Pressió 1013 hPa
Visibilitat 10 km o més

METAR: YPJT 020000Z AUTO 19004KT 9999 // ////// 18/15 Q1013 RF00.0////./

Hora: 08:43 (00:43 UTC)

Pronòstic

L'informe es va fer fa 1 hora i 41 minuts, a les 23:02 UTC
Pronòstic vàlid del 02 a les 00 UTC al 02 a les 18 UTC
Vent 12 kt del Sud/Sud-Oest
Visibilitat 10 km o més
Cel ennuvolat a una alçada de 3500 ft
xàfecs de pluja
A partir de les 02 a les 0400 UTC
Vent 16 kt del Oest/Sud-Oest
Visibilitat 10 km o més
Núvols disperses a una alçada de 4500 ft
A partir de les 02 a les 1500 UTC
Vent 8 kt del Sud/Sud-Est
Visibilitat 10 km o més
Escasses núvols a una alçada de 3000 ft

TAF: YPJT 012302Z 0200/0218 21012KT 9999 -SHRA BKN035 FM020400 24016KT 9999 NSW SCT045 FM021500 16008KT 9999 FEW030

Observacions i pronòstics meteorològics de més de 4000 aeroports (METAR i TAF).

Les estacions disponibles són els punts grocs i vermells al mapa.

Posi el ratolí al punt desitjat per veure el nom de l'estació.

Feu clic per veure les observacions i els pronòstics meteorològics.

Per canviar el mapa: feu clic els botons verds amb una creu de color negre per apropar; al botó verd amb un guió per allunyar la imatge; o en les fletxes verdes per a mapes adjacents.


METAR-TAF: